createdAt,value
2018-12-03T00:00:03.410Z,13.60
2018-12-03T00:04:22.168Z,13.60
2018-12-03T00:08:34.136Z,13.60
2018-12-03T00:12:46.670Z,13.50
2018-12-03T00:16:58.585Z,13.40
2018-12-03T00:21:10.987Z,13.40
2018-12-03T00:25:22.992Z,13.50
2018-12-03T00:29:34.912Z,13.50
2018-12-03T00:33:46.920Z,13.50
2018-12-03T00:37:58.869Z,13.50
2018-12-03T00:42:11.095Z,13.50
2018-12-03T00:46:23.196Z,13.50
2018-12-03T00:50:35.313Z,13.50
2018-12-03T00:54:47.415Z,13.50
2018-12-03T00:58:59.606Z,13.50
2018-12-03T01:03:11.824Z,13.50
2018-12-03T01:07:24.075Z,13.50
2018-12-03T01:11:36.381Z,13.40
2018-12-03T01:15:48.574Z,13.40
2018-12-03T01:20:00.789Z,13.50
2018-12-03T01:24:12.881Z,13.50
2018-12-03T01:28:25.075Z,13.50
2018-12-03T01:32:37.383Z,13.60
2018-12-03T01:36:50.006Z,13.60
2018-12-03T01:41:02.296Z,13.60
2018-12-03T01:45:14.651Z,13.60
2018-12-03T01:49:26.646Z,13.60
2018-12-03T01:53:39.007Z,13.50
2018-12-03T01:57:51.079Z,13.60
2018-12-03T02:02:03.330Z,13.50
2018-12-03T02:06:15.440Z,13.50
2018-12-03T02:10:27.601Z,13.50
2018-12-03T02:14:39.855Z,13.50
2018-12-03T02:18:52.269Z,13.50
2018-12-03T02:23:04.346Z,13.50
2018-12-03T02:27:16.355Z,13.50
2018-12-03T02:31:28.565Z,13.50
2018-12-03T02:35:40.765Z,13.50
2018-12-03T02:39:52.871Z,13.50
2018-12-03T02:44:05.192Z,13.50
2018-12-03T02:48:17.378Z,13.50
2018-12-03T02:52:29.601Z,13.60
2018-12-03T02:56:41.909Z,13.60
2018-12-03T03:00:54.047Z,13.50
2018-12-03T03:05:06.817Z,13.50
2018-12-03T03:09:25.229Z,13.50
2018-12-03T03:13:37.282Z,13.50
2018-12-03T03:17:49.316Z,13.50
2018-12-03T03:22:01.370Z,13.50
2018-12-03T03:26:13.452Z,13.50
2018-12-03T03:30:25.438Z,13.50
2018-12-03T03:34:37.761Z,13.60
2018-12-03T03:38:49.951Z,13.60
2018-12-03T03:43:02.199Z,13.60
2018-12-03T03:47:14.381Z,13.60
2018-12-03T03:51:26.618Z,13.60
2018-12-03T03:55:38.710Z,13.50
2018-12-03T03:59:50.930Z,13.50
2018-12-03T04:04:03.114Z,13.50
2018-12-03T04:08:14.818Z,13.50
2018-12-03T04:12:26.761Z,13.50
2018-12-03T04:16:38.572Z,13.50
2018-12-03T04:20:50.573Z,13.60
2018-12-03T04:25:02.546Z,13.60
2018-12-03T04:29:14.664Z,13.60
2018-12-03T04:33:26.960Z,13.60
2018-12-03T04:37:39.181Z,13.60
2018-12-03T04:41:51.483Z,13.50
2018-12-03T04:46:03.979Z,13.50
2018-12-03T04:50:19.672Z,13.40
2018-12-03T04:54:31.638Z,13.40
2018-12-03T04:58:43.513Z,13.50
2018-12-03T05:02:55.753Z,13.50
2018-12-03T05:07:07.830Z,13.50
2018-12-03T05:11:19.931Z,13.50
2018-12-03T05:15:32.126Z,13.50
2018-12-03T05:19:43.927Z,13.50
2018-12-03T05:23:55.819Z,13.50
2018-12-03T05:28:07.754Z,13.50
2018-12-03T05:32:19.872Z,13.50
2018-12-03T05:36:32.065Z,13.50
2018-12-03T05:40:44.358Z,13.50
2018-12-03T05:44:56.575Z,13.40
2018-12-03T05:49:08.402Z,13.30
2018-12-03T05:53:20.341Z,13.40
2018-12-03T05:57:32.200Z,13.50
2018-12-03T06:01:44.320Z,13.50
2018-12-03T06:05:56.457Z,13.40
2018-12-03T06:10:11.397Z,13.40
2018-12-03T06:14:23.275Z,13.40
2018-12-03T06:18:35.161Z,13.40
2018-12-03T06:22:47.468Z,13.40
2018-12-03T06:26:59.421Z,13.40
2018-12-03T06:31:11.628Z,13.40
2018-12-03T06:35:23.874Z,13.40
2018-12-03T06:39:36.037Z,13.30
2018-12-03T06:43:48.260Z,13.30
2018-12-03T06:48:04.480Z,13.30
2018-12-03T06:52:16.361Z,13.40
2018-12-03T06:56:28.617Z,13.40
2018-12-03T07:00:40.558Z,13.40
2018-12-03T07:04:52.474Z,13.50
2018-12-03T07:09:05.773Z,13.50
2018-12-03T07:13:23.158Z,13.40
2018-12-03T07:17:35.157Z,13.50
2018-12-03T07:21:47.275Z,13.50
2018-12-03T07:25:59.470Z,13.50
2018-12-03T07:30:16.265Z,13.40
2018-12-03T07:34:28.588Z,13.40
2018-12-03T07:38:40.311Z,13.30
2018-12-03T07:42:52.294Z,13.30
2018-12-03T07:47:04.141Z,13.30
2018-12-03T07:51:16.221Z,13.40
2018-12-03T07:55:29.026Z,13.40
2018-12-03T07:59:40.947Z,13.40
2018-12-03T08:03:53.052Z,13.50
2018-12-03T08:08:05.198Z,13.50
2018-12-03T08:12:17.394Z,13.40
2018-12-03T08:16:29.491Z,13.40
2018-12-03T08:20:57.518Z,13.50
2018-12-03T08:25:09.970Z,13.50
2018-12-03T08:29:21.944Z,13.50
2018-12-03T08:33:33.902Z,13.60
2018-12-03T08:37:45.906Z,13.60
2018-12-03T08:41:58.015Z,13.50
2018-12-03T08:46:11.145Z,13.50
2018-12-03T08:50:26.528Z,13.50
2018-12-03T08:55:15.911Z,13.60
2018-12-03T08:59:34.682Z,13.70
2018-12-03T09:03:50.930Z,13.70
2018-12-03T09:08:03.017Z,13.70
2018-12-03T09:12:15.083Z,13.70
2018-12-03T09:16:26.855Z,13.70
2018-12-03T09:20:38.628Z,13.80
2018-12-03T09:24:50.585Z,13.80
2018-12-03T09:29:02.603Z,13.80
2018-12-03T09:33:14.803Z,13.80
2018-12-03T09:37:29.285Z,13.80
2018-12-03T09:41:41.486Z,13.80
2018-12-03T09:45:53.638Z,13.80
2018-12-03T09:50:05.972Z,13.80
2018-12-03T09:54:17.739Z,13.80
2018-12-03T09:58:29.650Z,13.80
2018-12-03T10:02:41.542Z,13.80
2018-12-03T10:06:53.429Z,13.80
2018-12-03T10:11:05.837Z,13.80
2018-12-03T10:15:17.920Z,13.90
2018-12-03T10:19:29.923Z,13.90
2018-12-03T10:23:42.045Z,13.80
2018-12-03T10:28:00.939Z,13.90
2018-12-03T10:32:17.440Z,13.90
2018-12-03T10:36:29.609Z,13.80
2018-12-03T10:40:44.391Z,13.80
2018-12-03T10:44:56.314Z,13.80
2018-12-03T10:49:09.952Z,13.90
2018-12-03T10:53:27.000Z,13.80
2018-12-03T10:57:39.741Z,13.80
2018-12-03T11:01:57.800Z,13.80
2018-12-03T11:06:14.630Z,13.80
2018-12-03T11:10:30.618Z,13.90
2018-12-03T11:14:42.940Z,14.00
2018-12-03T11:18:55.987Z,14.20
2018-12-03T11:23:08.426Z,14.20
2018-12-03T11:27:21.204Z,14.20
2018-12-03T11:31:34.499Z,14.30
2018-12-03T11:35:46.329Z,14.40
2018-12-03T11:41:05.109Z,14.50
2018-12-03T11:45:16.928Z,14.60
2018-12-03T11:49:29.230Z,14.70
2018-12-03T11:53:41.025Z,14.80
2018-12-03T11:57:53.318Z,14.80
2018-12-03T12:02:05.284Z,14.80
2018-12-03T12:06:17.198Z,14.80
2018-12-03T12:10:29.195Z,14.70
2018-12-03T12:14:41.309Z,14.60
2018-12-03T12:18:53.599Z,14.50
2018-12-03T12:23:05.803Z,14.50
2018-12-03T12:27:17.934Z,14.60
2018-12-03T12:31:30.149Z,14.70
2018-12-03T12:35:42.338Z,14.70
2018-12-03T12:39:54.468Z,14.70
2018-12-03T12:44:07.322Z,14.70
2018-12-03T12:48:19.096Z,14.70
2018-12-03T12:52:31.089Z,14.80
2018-12-03T12:56:43.158Z,14.90
2018-12-03T13:00:55.219Z,14.90
2018-12-03T13:05:07.020Z,14.80
2018-12-03T13:09:18.858Z,14.70
2018-12-03T13:13:30.663Z,14.70
2018-12-03T13:17:43.641Z,14.80
2018-12-03T13:21:55.941Z,14.80
2018-12-03T13:26:08.502Z,14.80
2018-12-03T13:30:20.529Z,14.80
2018-12-03T13:34:34.489Z,14.70
2018-12-03T13:38:46.476Z,14.60
2018-12-03T13:42:58.590Z,14.60
2018-12-03T13:47:10.571Z,14.60
2018-12-03T13:51:22.869Z,14.50
2018-12-03T13:55:34.531Z,14.50
2018-12-03T13:59:46.407Z,14.50
2018-12-03T14:04:14.909Z,14.60
2018-12-03T14:08:37.609Z,14.50
2018-12-03T14:13:00.739Z,14.50
2018-12-03T14:17:19.665Z,14.50
2018-12-03T14:21:40.490Z,14.50
2018-12-03T14:25:52.372Z,14.40
2018-12-03T14:30:05.302Z,14.40
2018-12-03T14:34:20.670Z,14.40
2018-12-03T14:38:32.869Z,14.50
2018-12-03T14:42:44.661Z,14.40
2018-12-03T14:46:56.542Z,14.50
2018-12-03T14:51:08.442Z,14.50
2018-12-03T14:55:20.326Z,14.40
2018-12-03T14:59:32.305Z,14.50
2018-12-03T15:03:44.430Z,14.50
2018-12-03T15:07:56.520Z,14.40
2018-12-03T15:12:08.741Z,14.40
2018-12-03T15:16:20.506Z,14.30
2018-12-03T15:20:32.336Z,14.30
2018-12-03T15:24:44.445Z,14.30
2018-12-03T15:28:56.663Z,14.30
2018-12-03T15:33:08.897Z,14.20
2018-12-03T15:37:21.060Z,14.20
2018-12-03T15:41:33.258Z,14.20
2018-12-03T15:45:44.973Z,14.10
2018-12-03T15:49:56.879Z,14.10
2018-12-03T15:54:08.891Z,14.10
2018-12-03T15:58:20.967Z,14.00
2018-12-03T16:02:33.210Z,13.90
2018-12-03T16:06:44.999Z,13.90
2018-12-03T16:10:56.989Z,13.90
2018-12-03T16:15:09.865Z,13.90
2018-12-03T16:19:21.936Z,13.90
2018-12-03T16:23:34.058Z,13.90
2018-12-03T16:27:45.851Z,13.90
2018-12-03T16:31:57.865Z,13.90
2018-12-03T16:36:09.751Z,13.90
2018-12-03T16:40:21.748Z,13.90
2018-12-03T16:44:33.961Z,13.80
2018-12-03T16:48:45.602Z,13.80
2018-12-03T16:52:57.343Z,13.80
2018-12-03T16:57:09.329Z,13.80
2018-12-03T17:01:21.306Z,13.80
2018-12-03T17:05:33.400Z,13.80
2018-12-03T17:09:45.489Z,13.80
2018-12-03T17:13:57.731Z,13.80
2018-12-03T17:18:09.926Z,13.80
2018-12-03T17:22:44.513Z,13.70
2018-12-03T17:26:57.477Z,13.70
2018-12-03T17:31:09.719Z,13.70
2018-12-03T17:35:21.823Z,13.70
2018-12-03T17:39:34.112Z,13.70
2018-12-03T17:43:46.508Z,13.60
2018-12-03T17:47:59.182Z,13.60
2018-12-03T17:52:11.414Z,13.50
2018-12-03T17:56:23.529Z,13.50
2018-12-03T18:00:35.557Z,13.40
2018-12-03T18:04:47.732Z,13.50
2018-12-03T18:08:59.535Z,13.40
2018-12-03T18:13:11.676Z,13.40
2018-12-03T18:17:23.552Z,13.40
2018-12-03T18:21:35.487Z,13.40
2018-12-03T18:25:47.754Z,13.40
2018-12-03T18:30:00.031Z,13.30
2018-12-03T18:34:13.987Z,13.30
2018-12-03T18:38:26.535Z,13.40
2018-12-03T18:42:39.019Z,13.40
2018-12-03T18:46:51.657Z,13.40
2018-12-03T18:51:04.021Z,13.40
2018-12-03T18:55:15.865Z,13.50
2018-12-03T18:59:27.964Z,13.50
2018-12-03T19:03:40.070Z,13.50
2018-12-03T19:07:52.264Z,13.50
2018-12-03T19:12:04.403Z,13.50
2018-12-03T19:16:16.497Z,13.50
2018-12-03T19:20:28.696Z,13.40
2018-12-03T19:24:40.915Z,13.40
2018-12-03T19:28:53.184Z,13.30
2018-12-03T19:33:05.494Z,13.30
2018-12-03T19:37:17.671Z,13.30
2018-12-03T19:41:29.874Z,13.30
2018-12-03T19:45:42.066Z,13.20
2018-12-03T19:49:53.758Z,13.20
2018-12-03T19:54:05.741Z,13.20
2018-12-03T19:58:21.682Z,13.30
2018-12-03T20:02:33.520Z,13.30
2018-12-03T20:06:45.482Z,13.40
2018-12-03T20:10:57.613Z,13.40
2018-12-03T20:15:10.346Z,13.40
2018-12-03T20:19:22.205Z,13.40
2018-12-03T20:23:40.376Z,13.40
2018-12-03T20:27:59.866Z,13.40
2018-12-03T20:32:18.637Z,13.40
2018-12-03T20:37:43.846Z,13.40
2018-12-03T20:41:58.809Z,13.30
2018-12-03T20:46:16.444Z,13.30
2018-12-03T20:50:35.882Z,13.20
2018-12-03T20:54:48.757Z,13.20
2018-12-03T20:59:00.638Z,13.30
2018-12-03T21:03:12.565Z,13.30
2018-12-03T21:07:24.775Z,13.30
2018-12-03T21:11:37.022Z,13.30
2018-12-03T21:15:49.093Z,13.30
2018-12-03T21:20:14.281Z,13.30
2018-12-03T21:24:26.210Z,13.30
2018-12-03T21:28:38.102Z,13.30
2018-12-03T21:32:50.132Z,13.30
2018-12-03T21:37:02.213Z,13.20
2018-12-03T21:41:14.465Z,13.20
2018-12-03T21:45:26.669Z,13.20
2018-12-03T21:49:38.841Z,13.20
2018-12-03T21:53:50.708Z,13.20
2018-12-03T21:58:02.822Z,13.20
2018-12-03T22:02:14.733Z,13.20
2018-12-03T22:06:26.587Z,13.20
2018-12-03T22:10:38.610Z,13.10
2018-12-03T22:14:50.798Z,13.10
2018-12-03T22:19:02.997Z,13.20
2018-12-03T22:23:15.471Z,13.20
2018-12-03T22:27:27.579Z,13.30
2018-12-03T22:31:39.753Z,13.20
2018-12-03T22:35:51.860Z,13.10
2018-12-03T22:40:03.915Z,13.10
2018-12-03T22:44:16.066Z,13.10
2018-12-03T22:48:28.181Z,13.20
2018-12-03T22:52:40.389Z,13.10
2018-12-03T22:56:52.312Z,13.20
2018-12-03T23:01:08.010Z,13.20
2018-12-03T23:05:20.225Z,13.20
2018-12-03T23:09:32.437Z,13.20
2018-12-03T23:13:44.513Z,13.20
2018-12-03T23:17:56.594Z,13.20
2018-12-03T23:22:08.726Z,13.20
2018-12-03T23:26:20.914Z,13.20
2018-12-03T23:30:49.192Z,13.10
2018-12-03T23:35:01.011Z,13.10
2018-12-03T23:39:13.007Z,13.20
2018-12-03T23:43:25.239Z,13.20
2018-12-03T23:47:37.579Z,13.20
2018-12-03T23:51:49.755Z,13.20
2018-12-03T23:56:01.963Z,13.20
